sensor_id;sensor_type;location;lat;lon;timestamp;P1;durP1;ratioP1;P2;durP2;ratioP2
69414;SDS011;56608;43.530;-5.652;2022-08-20T00:00:27;6.65;;;3.40;;
69414;SDS011;56608;43.530;-5.652;2022-08-20T00:01:31;5.50;;;3.30;;
69414;SDS011;56608;43.530;-5.652;2022-08-20T00:02:38;6.10;;;3.75;;
69414;SDS011;56608;43.530;-5.652;2022-08-20T00:03:52;5.70;;;3.50;;
69414;SDS011;56608;43.530;-5.652;2022-08-20T00:04:53;5.90;;;3.92;;
69414;SDS011;56608;43.530;-5.652;2022-08-20T00:07:02;8.20;;;4.00;;
69414;SDS011;56608;43.530;-5.652;2022-08-20T00:08:04;6.10;;;3.90;;
69414;SDS011;56608;43.530;-5.652;2022-08-20T00:09:07;5.40;;;3.30;;
69414;SDS011;56608;43.530;-5.652;2022-08-20T00:11:12;8.02;;;4.05;;
69414;SDS011;56608;43.530;-5.652;2022-08-20T00:12:15;6.40;;;3.40;;
69414;SDS011;56608;43.530;-5.652;2022-08-20T00:13:19;7.70;;;3.70;;
69414;SDS011;56608;43.530;-5.652;2022-08-20T00:14:23;5.90;;;3.80;;
69414;SDS011;56608;43.530;-5.652;2022-08-20T00:15:27;5.53;;;3.70;;
69414;SDS011;56608;43.530;-5.652;2022-08-20T00:16:33;5.70;;;3.90;;
69414;SDS011;56608;43.530;-5.652;2022-08-20T00:17:36;4.90;;;3.70;;
69414;SDS011;56608;43.530;-5.652;2022-08-20T00:18:38;8.90;;;4.45;;
69414;SDS011;56608;43.530;-5.652;2022-08-20T00:19:40;7.20;;;3.70;;
69414;SDS011;56608;43.530;-5.652;2022-08-20T00:20:43;7.68;;;3.50;;
69414;SDS011;56608;43.530;-5.652;2022-08-20T00:21:45;6.15;;;3.70;;
69414;SDS011;56608;43.530;-5.652;2022-08-20T00:22:46;6.40;;;3.60;;
69414;SDS011;56608;43.530;-5.652;2022-08-20T00:23:49;5.72;;;3.83;;
69414;SDS011;56608;43.530;-5.652;2022-08-20T00:24:50;5.35;;;3.45;;
69414;SDS011;56608;43.530;-5.652;2022-08-20T00:25:52;8.30;;;3.70;;
69414;SDS011;56608;43.530;-5.652;2022-08-20T00:27:55;4.28;;;3.00;;
69414;SDS011;56608;43.530;-5.652;2022-08-20T00:28:57;6.70;;;3.30;;
69414;SDS011;56608;43.530;-5.652;2022-08-20T00:29:59;7.30;;;3.10;;
69414;SDS011;56608;43.530;-5.652;2022-08-20T00:31:02;5.62;;;2.90;;
69414;SDS011;56608;43.530;-5.652;2022-08-20T00:32:05;5.60;;;3.60;;
69414;SDS011;56608;43.530;-5.652;2022-08-20T00:33:08;5.03;;;3.20;;
69414;SDS011;56608;43.530;-5.652;2022-08-20T00:34:12;4.65;;;3.55;;
69414;SDS011;56608;43.530;-5.652;2022-08-20T00:35:15;6.30;;;3.50;;
69414;SDS011;56608;43.530;-5.652;2022-08-20T00:36:18;5.30;;;3.30;;
69414;SDS011;56608;43.530;-5.652;2022-08-20T00:37:19;7.40;;;3.35;;
69414;SDS011;56608;43.530;-5.652;2022-08-20T00:38:19;7.90;;;3.20;;
69414;SDS011;56608;43.530;-5.652;2022-08-20T00:39:21;4.60;;;3.00;;
69414;SDS011;56608;43.530;-5.652;2022-08-20T00:40:25;4.90;;;3.10;;
69414;SDS011;56608;43.530;-5.652;2022-08-20T00:41:28;4.50;;;2.40;;
69414;SDS011;56608;43.530;-5.652;2022-08-20T00:42:38;5.60;;;2.80;;
69414;SDS011;56608;43.530;-5.652;2022-08-20T00:43:51;6.20;;;3.00;;
69414;SDS011;56608;43.530;-5.652;2022-08-20T00:45:04;10.00;;;3.40;;
69414;SDS011;56608;43.530;-5.652;2022-08-20T00:47:08;6.30;;;2.90;;
69414;SDS011;56608;43.530;-5.652;2022-08-20T00:48:10;5.55;;;3.55;;
69414;SDS011;56608;43.530;-5.652;2022-08-20T00:50:18;5.55;;;3.60;;
69414;SDS011;56608;43.530;-5.652;2022-08-20T00:52:31;5.80;;;3.90;;
69414;SDS011;56608;43.530;-5.652;2022-08-20T00:53:32;6.45;;;3.45;;
69414;SDS011;56608;43.530;-5.652;2022-08-20T00:54:40;5.00;;;3.40;;
69414;SDS011;56608;43.530;-5.652;2022-08-20T00:55:44;4.40;;;3.15;;
69414;SDS011;56608;43.530;-5.652;2022-08-20T00:56:48;4.50;;;3.40;;
69414;SDS011;56608;43.530;-5.652;2022-08-20T00:57:53;4.90;;;3.00;;
69414;SDS011;56608;43.530;-5.652;2022-08-20T00:58:57;5.70;;;3.25;;
69414;SDS011;56608;43.530;-5.652;2022-08-20T01:00:00;7.60;;;3.40;;
69414;SDS011;56608;43.530;-5.652;2022-08-20T01:01:04;6.50;;;3.45;;
69414;SDS011;56608;43.530;-5.652;2022-08-20T01:02:08;6.50;;;3.10;;
69414;SDS011;56608;43.530;-5.652;2022-08-20T01:03:14;4.50;;;3.30;;
69414;SDS011;56608;43.530;-5.652;2022-08-20T01:04:17;5.80;;;3.50;;
69414;SDS011;56608;43.530;-5.652;2022-08-20T01:06:21;4.30;;;3.10;;
69414;SDS011;56608;43.530;-5.652;2022-08-20T01:07:24;7.75;;;3.50;;
69414;SDS011;56608;43.530;-5.652;2022-08-20T01:08:33;5.05;;;3.05;;
69414;SDS011;56608;43.530;-5.652;2022-08-20T01:09:35;7.10;;;3.20;;
69414;SDS011;56608;43.530;-5.652;2022-08-20T01:10:40;5.50;;;3.20;;
69414;SDS011;56608;43.530;-5.652;2022-08-20T01:11:43;4.85;;;3.00;;
69414;SDS011;56608;43.530;-5.652;2022-08-20T01:12:46;5.90;;;3.30;;
69414;SDS011;56608;43.530;-5.652;2022-08-20T01:13:48;8.10;;;3.40;;
69414;SDS011;56608;43.530;-5.652;2022-08-20T01:14:51;5.60;;;3.00;;
69414;SDS011;56608;43.530;-5.652;2022-08-20T01:15:53;3.90;;;2.80;;
69414;SDS011;56608;43.530;-5.652;2022-08-20T01:16:57;6.15;;;3.05;;
69414;SDS011;56608;43.530;-5.652;2022-08-20T01:18:02;5.60;;;3.20;;
69414;SDS011;56608;43.530;-5.652;2022-08-20T01:19:04;8.20;;;3.10;;
69414;SDS011;56608;43.530;-5.652;2022-08-20T01:20:10;4.10;;;2.80;;
69414;SDS011;56608;43.530;-5.652;2022-08-20T01:21:17;6.00;;;3.10;;
69414;SDS011;56608;43.530;-5.652;2022-08-20T01:22:37;3.70;;;2.90;;
69414;SDS011;56608;43.530;-5.652;2022-08-20T01:24:14;5.50;;;3.10;;
69414;SDS011;56608;43.530;-5.652;2022-08-20T01:25:24;4.80;;;2.90;;
69414;SDS011;56608;43.530;-5.652;2022-08-20T01:26:40;5.90;;;2.95;;
69414;SDS011;56608;43.530;-5.652;2022-08-20T01:27:43;4.55;;;2.75;;
69414;SDS011;56608;43.530;-5.652;2022-08-20T01:29:54;4.65;;;2.90;;
69414;SDS011;56608;43.530;-5.652;2022-08-20T01:30:55;6.50;;;3.05;;
69414;SDS011;56608;43.530;-5.652;2022-08-20T01:31:56;4.30;;;2.95;;
69414;SDS011;56608;43.530;-5.652;2022-08-20T01:33:00;6.15;;;2.80;;
69414;SDS011;56608;43.530;-5.652;2022-08-20T01:34:02;4.15;;;2.85;;
69414;SDS011;56608;43.530;-5.652;2022-08-20T01:35:05;7.05;;;3.05;;
69414;SDS011;56608;43.530;-5.652;2022-08-20T01:36:09;6.30;;;3.00;;
69414;SDS011;56608;43.530;-5.652;2022-08-20T01:37:11;5.00;;;3.00;;
69414;SDS011;56608;43.530;-5.652;2022-08-20T01:38:12;3.55;;;2.60;;
69414;SDS011;56608;43.530;-5.652;2022-08-20T01:39:15;4.70;;;2.92;;
69414;SDS011;56608;43.530;-5.652;2022-08-20T01:40:23;4.00;;;2.55;;
69414;SDS011;56608;43.530;-5.652;2022-08-20T01:41:46;4.25;;;2.90;;
69414;SDS011;56608;43.530;-5.652;2022-08-20T01:42:51;4.60;;;2.80;;
69414;SDS011;56608;43.530;-5.652;2022-08-20T01:43:52;3.95;;;2.90;;
69414;SDS011;56608;43.530;-5.652;2022-08-20T01:44:56;4.45;;;2.80;;
69414;SDS011;56608;43.530;-5.652;2022-08-20T01:45:58;7.20;;;3.50;;
69414;SDS011;56608;43.530;-5.652;2022-08-20T01:47:07;3.55;;;2.90;;
69414;SDS011;56608;43.530;-5.652;2022-08-20T01:48:18;5.15;;;3.40;;
69414;SDS011;56608;43.530;-5.652;2022-08-20T01:49:22;5.80;;;3.15;;
69414;SDS011;56608;43.530;-5.652;2022-08-20T01:50:26;4.80;;;3.10;;
69414;SDS011;56608;43.530;-5.652;2022-08-20T01:51:30;4.20;;;2.85;;
69414;SDS011;56608;43.530;-5.652;2022-08-20T01:54:00;5.15;;;3.35;;
69414;SDS011;56608;43.530;-5.652;2022-08-20T01:55:01;4.95;;;3.55;;
69414;SDS011;56608;43.530;-5.652;2022-08-20T01:56:03;4.90;;;3.25;;
69414;SDS011;56608;43.530;-5.652;2022-08-20T01:57:10;4.95;;;3.10;;
69414;SDS011;56608;43.530;-5.652;2022-08-20T01:58:12;6.95;;;3.60;;
69414;SDS011;56608;43.530;-5.652;2022-08-20T01:59:13;6.05;;;3.35;;
69414;SDS011;56608;43.530;-5.652;2022-08-20T02:00:14;6.65;;;3.50;;
69414;SDS011;56608;43.530;-5.652;2022-08-20T02:01:20;6.30;;;3.90;;
69414;SDS011;56608;43.530;-5.652;2022-08-20T02:02:25;5.55;;;3.20;;
69414;SDS011;56608;43.530;-5.652;2022-08-20T02:03:25;5.00;;;3.15;;
69414;SDS011;56608;43.530;-5.652;2022-08-20T02:04:26;6.70;;;3.50;;
69414;SDS011;56608;43.530;-5.652;2022-08-20T02:05:28;5.75;;;3.70;;
69414;SDS011;56608;43.530;-5.652;2022-08-20T02:06:30;5.00;;;3.65;;
69414;SDS011;56608;43.530;-5.652;2022-08-20T02:07:32;4.75;;;3.30;;
69414;SDS011;56608;43.530;-5.652;2022-08-20T02:08:33;5.65;;;3.10;;
69414;SDS011;56608;43.530;-5.652;2022-08-20T02:09:36;4.70;;;3.00;;
69414;SDS011;56608;43.530;-5.652;2022-08-20T02:10:39;5.40;;;3.20;;
69414;SDS011;56608;43.530;-5.652;2022-08-20T02:11:40;4.90;;;3.10;;
69414;SDS011;56608;43.530;-5.652;2022-08-20T02:12:42;6.70;;;2.90;;
69414;SDS011;56608;43.530;-5.652;2022-08-20T02:13:42;4.70;;;3.65;;
69414;SDS011;56608;43.530;-5.652;2022-08-20T02:14:45;4.55;;;2.75;;
69414;SDS011;56608;43.530;-5.652;2022-08-20T02:15:48;4.80;;;3.15;;
69414;SDS011;56608;43.530;-5.652;2022-08-20T02:16:48;4.65;;;3.10;;
69414;SDS011;56608;43.530;-5.652;2022-08-20T02:17:49;5.25;;;2.85;;
69414;SDS011;56608;43.530;-5.652;2022-08-20T02:18:51;3.90;;;3.00;;
69414;SDS011;56608;43.530;-5.652;2022-08-20T02:20:00;5.45;;;3.00;;
69414;SDS011;56608;43.530;-5.652;2022-08-20T02:21:08;5.60;;;3.63;;
69414;SDS011;56608;43.530;-5.652;2022-08-20T02:22:13;5.12;;;3.45;;
69414;SDS011;56608;43.530;-5.652;2022-08-20T02:23:15;6.90;;;3.65;;
69414;SDS011;56608;43.530;-5.652;2022-08-20T02:24:16;5.65;;;3.45;;
69414;SDS011;56608;43.530;-5.652;2022-08-20T02:25:20;5.30;;;3.50;;
69414;SDS011;56608;43.530;-5.652;2022-08-20T02:26:23;6.75;;;3.75;;
69414;SDS011;56608;43.530;-5.652;2022-08-20T02:27:26;6.30;;;3.30;;
69414;SDS011;56608;43.530;-5.652;2022-08-20T02:28:27;5.80;;;3.20;;
69414;SDS011;56608;43.530;-5.652;2022-08-20T02:29:28;5.30;;;3.80;;
69414;SDS011;56608;43.530;-5.652;2022-08-20T02:30:31;5.35;;;3.00;;
69414;SDS011;56608;43.530;-5.652;2022-08-20T02:31:34;6.65;;;3.55;;
69414;SDS011;56608;43.530;-5.652;2022-08-20T02:32:36;7.55;;;3.85;;
69414;SDS011;56608;43.530;-5.652;2022-08-20T02:33:37;5.75;;;3.35;;
69414;SDS011;56608;43.530;-5.652;2022-08-20T02:34:37;9.80;;;3.45;;
69414;SDS011;56608;43.530;-5.652;2022-08-20T02:35:39;5.00;;;3.10;;
69414;SDS011;56608;43.530;-5.652;2022-08-20T02:36:41;5.90;;;3.55;;
69414;SDS011;56608;43.530;-5.652;2022-08-20T02:37:44;5.80;;;3.70;;
69414;SDS011;56608;43.530;-5.652;2022-08-20T02:38:46;4.60;;;3.10;;
69414;SDS011;56608;43.530;-5.652;2022-08-20T02:39:48;4.32;;;2.97;;
69414;SDS011;56608;43.530;-5.652;2022-08-20T02:40:49;5.80;;;3.35;;
69414;SDS011;56608;43.530;-5.652;2022-08-20T02:41:49;4.60;;;3.30;;
69414;SDS011;56608;43.530;-5.652;2022-08-20T02:42:50;4.95;;;2.80;;
69414;SDS011;56608;43.530;-5.652;2022-08-20T02:43:50;7.55;;;3.00;;
69414;SDS011;56608;43.530;-5.652;2022-08-20T02:44:52;4.60;;;2.90;;
69414;SDS011;56608;43.530;-5.652;2022-08-20T02:45:53;3.95;;;2.80;;
69414;SDS011;56608;43.530;-5.652;2022-08-20T02:46:54;4.35;;;2.65;;
69414;SDS011;56608;43.530;-5.652;2022-08-20T02:47:55;3.90;;;2.90;;
69414;SDS011;56608;43.530;-5.652;2022-08-20T02:48:56;4.85;;;2.85;;
69414;SDS011;56608;43.530;-5.652;2022-08-20T02:49:57;3.50;;;2.35;;
69414;SDS011;56608;43.530;-5.652;2022-08-20T02:51:00;3.60;;;2.80;;
69414;SDS011;56608;43.530;-5.652;2022-08-20T02:52:03;4.05;;;2.60;;
69414;SDS011;56608;43.530;-5.652;2022-08-20T02:53:04;5.30;;;2.85;;
69414;SDS011;56608;43.530;-5.652;2022-08-20T02:54:05;5.20;;;2.60;;
69414;SDS011;56608;43.530;-5.652;2022-08-20T02:55:07;5.22;;;2.83;;
69414;SDS011;56608;43.530;-5.652;2022-08-20T02:56:09;7.40;;;2.75;;
69414;SDS011;56608;43.530;-5.652;2022-08-20T02:57:14;6.00;;;3.00;;
69414;SDS011;56608;43.530;-5.652;2022-08-20T02:58:20;4.95;;;2.80;;
69414;SDS011;56608;43.530;-5.652;2022-08-20T02:59:21;6.10;;;3.10;;
69414;SDS011;56608;43.530;-5.652;2022-08-20T03:00:22;3.70;;;2.50;;
69414;SDS011;56608;43.530;-5.652;2022-08-20T03:01:22;6.15;;;2.85;;
69414;SDS011;56608;43.530;-5.652;2022-08-20T03:02:24;4.35;;;2.70;;
69414;SDS011;56608;43.530;-5.652;2022-08-20T03:03:26;5.25;;;2.80;;
69414;SDS011;56608;43.530;-5.652;2022-08-20T03:04:28;3.37;;;2.80;;
69414;SDS011;56608;43.530;-5.652;2022-08-20T03:05:30;3.70;;;2.60;;
69414;SDS011;56608;43.530;-5.652;2022-08-20T03:06:31;3.60;;;2.78;;
69414;SDS011;56608;43.530;-5.652;2022-08-20T03:07:39;5.70;;;2.75;;
69414;SDS011;56608;43.530;-5.652;2022-08-20T03:08:41;4.50;;;2.90;;
69414;SDS011;56608;43.530;-5.652;2022-08-20T03:09:43;4.70;;;2.70;;
69414;SDS011;56608;43.530;-5.652;2022-08-20T03:10:44;3.75;;;2.95;;
69414;SDS011;56608;43.530;-5.652;2022-08-20T03:11:47;6.30;;;2.60;;
69414;SDS011;56608;43.530;-5.652;2022-08-20T03:13:48;7.65;;;3.45;;
69414;SDS011;56608;43.530;-5.652;2022-08-20T03:14:50;8.30;;;3.15;;
69414;SDS011;56608;43.530;-5.652;2022-08-20T03:15:52;7.10;;;3.10;;
69414;SDS011;56608;43.530;-5.652;2022-08-20T03:16:55;5.90;;;2.80;;
69414;SDS011;56608;43.530;-5.652;2022-08-20T03:17:56;5.10;;;2.80;;
69414;SDS011;56608;43.530;-5.652;2022-08-20T03:19:59;5.97;;;3.33;;
69414;SDS011;56608;43.530;-5.652;2022-08-20T03:21:00;4.85;;;3.10;;
69414;SDS011;56608;43.530;-5.652;2022-08-20T03:22:02;4.00;;;2.90;;
69414;SDS011;56608;43.530;-5.652;2022-08-20T03:24:04;4.60;;;2.62;;
69414;SDS011;56608;43.530;-5.652;2022-08-20T03:26:08;5.15;;;2.70;;
69414;SDS011;56608;43.530;-5.652;2022-08-20T03:27:11;4.70;;;2.35;;
69414;SDS011;56608;43.530;-5.652;2022-08-20T03:28:12;7.05;;;2.30;;
69414;SDS011;56608;43.530;-5.652;2022-08-20T03:29:15;6.45;;;2.80;;
69414;SDS011;56608;43.530;-5.652;2022-08-20T03:30:16;6.50;;;2.75;;
69414;SDS011;56608;43.530;-5.652;2022-08-20T03:31:19;2.60;;;2.40;;
69414;SDS011;56608;43.530;-5.652;2022-08-20T03:32:20;4.70;;;2.75;;
69414;SDS011;56608;43.530;-5.652;2022-08-20T03:34:23;5.80;;;2.67;;
69414;SDS011;56608;43.530;-5.652;2022-08-20T03:36:26;3.10;;;2.50;;
69414;SDS011;56608;43.530;-5.652;2022-08-20T03:37:29;4.10;;;2.65;;
69414;SDS011;56608;43.530;-5.652;2022-08-20T03:38:31;6.50;;;3.25;;
69414;SDS011;56608;43.530;-5.652;2022-08-20T03:39:32;5.50;;;3.10;;
69414;SDS011;56608;43.530;-5.652;2022-08-20T03:40:34;8.65;;;3.70;;
69414;SDS011;56608;43.530;-5.652;2022-08-20T03:41:35;4.10;;;2.75;;
69414;SDS011;56608;43.530;-5.652;2022-08-20T03:42:36;3.85;;;3.00;;
69414;SDS011;56608;43.530;-5.652;2022-08-20T03:43:39;3.90;;;2.85;;
69414;SDS011;56608;43.530;-5.652;2022-08-20T03:44:41;4.30;;;2.80;;
69414;SDS011;56608;43.530;-5.652;2022-08-20T03:45:44;5.87;;;2.80;;
69414;SDS011;56608;43.530;-5.652;2022-08-20T03:46:46;4.65;;;2.60;;
69414;SDS011;56608;43.530;-5.652;2022-08-20T03:47:48;4.23;;;2.80;;
69414;SDS011;56608;43.530;-5.652;2022-08-20T03:48:51;5.25;;;2.40;;
69414;SDS011;56608;43.530;-5.652;2022-08-20T03:49:56;5.95;;;2.90;;
69414;SDS011;56608;43.530;-5.652;2022-08-20T03:50:59;5.60;;;2.90;;
69414;SDS011;56608;43.530;-5.652;2022-08-20T03:52:01;4.10;;;2.90;;
69414;SDS011;56608;43.530;-5.652;2022-08-20T03:53:04;5.95;;;2.75;;
69414;SDS011;56608;43.530;-5.652;2022-08-20T03:54:05;4.45;;;2.90;;
69414;SDS011;56608;43.530;-5.652;2022-08-20T03:55:07;3.30;;;2.72;;
69414;SDS011;56608;43.530;-5.652;2022-08-20T03:56:10;5.95;;;2.95;;
69414;SDS011;56608;43.530;-5.652;2022-08-20T03:57:12;5.03;;;3.00;;
69414;SDS011;56608;43.530;-5.652;2022-08-20T03:58:15;5.15;;;3.00;;
69414;SDS011;56608;43.530;-5.652;2022-08-20T03:59:17;4.80;;;3.20;;
69414;SDS011;56608;43.530;-5.652;2022-08-20T04:00:22;4.70;;;2.80;;
69414;SDS011;56608;43.530;-5.652;2022-08-20T04:01:50;3.67;;;2.67;;
69414;SDS011;56608;43.530;-5.652;2022-08-20T04:02:52;4.05;;;2.50;;
69414;SDS011;56608;43.530;-5.652;2022-08-20T04:03:57;4.75;;;2.60;;
69414;SDS011;56608;43.530;-5.652;2022-08-20T04:04:58;4.40;;;2.90;;
69414;SDS011;56608;43.530;-5.652;2022-08-20T04:06:00;7.37;;;3.12;;
69414;SDS011;56608;43.530;-5.652;2022-08-20T04:07:07;5.25;;;2.90;;
69414;SDS011;56608;43.530;-5.652;2022-08-20T04:08:12;5.05;;;3.20;;
69414;SDS011;56608;43.530;-5.652;2022-08-20T04:09:17;4.95;;;3.45;;
69414;SDS011;56608;43.530;-5.652;2022-08-20T04:10:19;5.75;;;3.20;;
69414;SDS011;56608;43.530;-5.652;2022-08-20T04:11:21;4.30;;;2.72;;
69414;SDS011;56608;43.530;-5.652;2022-08-20T04:12:24;3.85;;;2.70;;
69414;SDS011;56608;43.530;-5.652;2022-08-20T04:13:27;8.15;;;4.00;;
69414;SDS011;56608;43.530;-5.652;2022-08-20T04:14:30;5.60;;;3.30;;
69414;SDS011;56608;43.530;-5.652;2022-08-20T04:15:30;6.57;;;3.60;;
69414;SDS011;56608;43.530;-5.652;2022-08-20T04:16:32;5.10;;;3.30;;
69414;SDS011;56608;43.530;-5.652;2022-08-20T04:17:35;6.47;;;3.70;;
69414;SDS011;56608;43.530;-5.652;2022-08-20T04:18:37;5.15;;;3.15;;
69414;SDS011;56608;43.530;-5.652;2022-08-20T04:19:39;4.45;;;3.40;;
69414;SDS011;56608;43.530;-5.652;2022-08-20T04:20:41;4.70;;;3.30;;
69414;SDS011;56608;43.530;-5.652;2022-08-20T04:21:43;5.10;;;3.20;;
69414;SDS011;56608;43.530;-5.652;2022-08-20T04:22:48;7.30;;;3.30;;
69414;SDS011;56608;43.530;-5.652;2022-08-20T04:23:49;7.30;;;3.40;;
69414;SDS011;56608;43.530;-5.652;2022-08-20T04:24:52;3.75;;;2.80;;
69414;SDS011;56608;43.530;-5.652;2022-08-20T04:25:53;5.80;;;3.45;;
69414;SDS011;56608;43.530;-5.652;2022-08-20T04:26:55;6.30;;;3.00;;
69414;SDS011;56608;43.530;-5.652;2022-08-20T04:27:58;6.90;;;3.60;;
69414;SDS011;56608;43.530;-5.652;2022-08-20T04:29:02;6.70;;;3.70;;
69414;SDS011;56608;43.530;-5.652;2022-08-20T04:30:05;6.65;;;3.15;;
69414;SDS011;56608;43.530;-5.652;2022-08-20T04:31:10;5.80;;;3.45;;
69414;SDS011;56608;43.530;-5.652;2022-08-20T04:32:14;6.05;;;2.85;;
69414;SDS011;56608;43.530;-5.652;2022-08-20T04:33:15;6.05;;;3.72;;
69414;SDS011;56608;43.530;-5.652;2022-08-20T04:34:15;7.00;;;3.70;;
69414;SDS011;56608;43.530;-5.652;2022-08-20T04:35:19;4.10;;;3.20;;
69414;SDS011;56608;43.530;-5.652;2022-08-20T04:36:21;5.40;;;3.20;;
69414;SDS011;56608;43.530;-5.652;2022-08-20T04:37:22;6.28;;;3.80;;
69414;SDS011;56608;43.530;-5.652;2022-08-20T04:39:25;5.45;;;3.95;;
69414;SDS011;56608;43.530;-5.652;2022-08-20T04:40:27;6.30;;;3.40;;
69414;SDS011;56608;43.530;-5.652;2022-08-20T04:41:47;9.35;;;3.60;;
69414;SDS011;56608;43.530;-5.652;2022-08-20T04:42:48;6.45;;;3.20;;
69414;SDS011;56608;43.530;-5.652;2022-08-20T04:43:50;7.32;;;3.60;;
69414;SDS011;56608;43.530;-5.652;2022-08-20T04:44:53;6.90;;;3.80;;
69414;SDS011;56608;43.530;-5.652;2022-08-20T04:45:55;6.87;;;3.25;;
69414;SDS011;56608;43.530;-5.652;2022-08-20T04:46:59;8.85;;;3.75;;
69414;SDS011;56608;43.530;-5.652;2022-08-20T04:48:02;5.10;;;3.25;;
69414;SDS011;56608;43.530;-5.652;2022-08-20T04:49:05;6.10;;;3.75;;
69414;SDS011;56608;43.530;-5.652;2022-08-20T04:50:08;7.55;;;3.25;;
69414;SDS011;56608;43.530;-5.652;2022-08-20T04:51:10;5.80;;;3.45;;
69414;SDS011;56608;43.530;-5.652;2022-08-20T04:52:14;6.90;;;3.10;;
69414;SDS011;56608;43.530;-5.652;2022-08-20T04:53:16;5.90;;;3.10;;
69414;SDS011;56608;43.530;-5.652;2022-08-20T04:54:18;8.20;;;3.80;;
69414;SDS011;56608;43.530;-5.652;2022-08-20T04:55:20;8.20;;;3.50;;
69414;SDS011;56608;43.530;-5.652;2022-08-20T04:56:26;5.05;;;3.60;;
69414;SDS011;56608;43.530;-5.652;2022-08-20T04:57:31;8.05;;;3.90;;
69414;SDS011;56608;43.530;-5.652;2022-08-20T04:58:34;5.05;;;3.20;;
69414;SDS011;56608;43.530;-5.652;2022-08-20T04:59:36;7.75;;;3.45;;
69414;SDS011;56608;43.530;-5.652;2022-08-20T05:00:38;8.95;;;3.85;;
69414;SDS011;56608;43.530;-5.652;2022-08-20T05:01:40;11.40;;;3.90;;
69414;SDS011;56608;43.530;-5.652;2022-08-20T05:02:41;7.25;;;3.35;;
69414;SDS011;56608;43.530;-5.652;2022-08-20T05:04:44;6.50;;;3.30;;
69414;SDS011;56608;43.530;-5.652;2022-08-20T05:05:48;4.20;;;3.15;;
69414;SDS011;56608;43.530;-5.652;2022-08-20T05:06:50;6.25;;;3.40;;
69414;SDS011;56608;43.530;-5.652;2022-08-20T05:07:51;6.07;;;2.83;;
69414;SDS011;56608;43.530;-5.652;2022-08-20T05:08:55;6.60;;;3.15;;
69414;SDS011;56608;43.530;-5.652;2022-08-20T05:09:59;6.60;;;3.45;;
69414;SDS011;56608;43.530;-5.652;2022-08-20T05:11:05;5.45;;;3.30;;
69414;SDS011;56608;43.530;-5.652;2022-08-20T05:12:08;8.80;;;4.15;;
69414;SDS011;56608;43.530;-5.652;2022-08-20T05:13:10;5.50;;;3.10;;
69414;SDS011;56608;43.530;-5.652;2022-08-20T05:14:11;5.90;;;3.35;;
69414;SDS011;56608;43.530;-5.652;2022-08-20T05:15:13;6.55;;;3.50;;
69414;SDS011;56608;43.530;-5.652;2022-08-20T05:16:15;4.65;;;3.50;;
69414;SDS011;56608;43.530;-5.652;2022-08-20T05:17:17;4.90;;;3.00;;
69414;SDS011;56608;43.530;-5.652;2022-08-20T05:18:19;6.25;;;3.55;;
69414;SDS011;56608;43.530;-5.652;2022-08-20T05:19:22;6.35;;;3.10;;
69414;SDS011;56608;43.530;-5.652;2022-08-20T05:20:23;6.15;;;3.03;;
69414;SDS011;56608;43.530;-5.652;2022-08-20T05:21:25;4.62;;;3.37;;
69414;SDS011;56608;43.530;-5.652;2022-08-20T05:22:26;4.53;;;3.33;;
69414;SDS011;56608;43.530;-5.652;2022-08-20T05:23:27;5.20;;;3.00;;
69414;SDS011;56608;43.530;-5.652;2022-08-20T05:24:29;5.40;;;3.25;;
69414;SDS011;56608;43.530;-5.652;2022-08-20T05:25:30;5.90;;;3.80;;
69414;SDS011;56608;43.530;-5.652;2022-08-20T05:26:32;6.30;;;3.75;;
69414;SDS011;56608;43.530;-5.652;2022-08-20T05:28:36;5.97;;;3.55;;
69414;SDS011;56608;43.530;-5.652;2022-08-20T05:29:39;6.90;;;3.70;;
69414;SDS011;56608;43.530;-5.652;2022-08-20T05:30:42;5.45;;;3.95;;
69414;SDS011;56608;43.530;-5.652;2022-08-20T05:31:46;7.70;;;3.85;;
69414;SDS011;56608;43.530;-5.652;2022-08-20T05:32:46;6.70;;;3.70;;
69414;SDS011;56608;43.530;-5.652;2022-08-20T05:33:49;4.80;;;3.10;;
69414;SDS011;56608;43.530;-5.652;2022-08-20T05:34:51;5.90;;;3.80;;
69414;SDS011;56608;43.530;-5.652;2022-08-20T05:36:53;5.68;;;3.20;;
69414;SDS011;56608;43.530;-5.652;2022-08-20T05:37:55;7.05;;;3.60;;
69414;SDS011;56608;43.530;-5.652;2022-08-20T05:39:58;10.18;;;4.03;;
69414;SDS011;56608;43.530;-5.652;2022-08-20T05:40:59;6.12;;;4.65;;
69414;SDS011;56608;43.530;-5.652;2022-08-20T05:43:01;6.05;;;4.00;;
69414;SDS011;56608;43.530;-5.652;2022-08-20T05:44:04;5.85;;;4.00;;
69414;SDS011;56608;43.530;-5.652;2022-08-20T05:45:10;9.95;;;4.00;;
69414;SDS011;56608;43.530;-5.652;2022-08-20T05:46:11;5.87;;;3.60;;
69414;SDS011;56608;43.530;-5.652;2022-08-20T05:47:13;6.30;;;3.50;;
69414;SDS011;56608;43.530;-5.652;2022-08-20T05:48:14;6.10;;;3.60;;
69414;SDS011;56608;43.530;-5.652;2022-08-20T05:49:18;5.55;;;3.90;;
69414;SDS011;56608;43.530;-5.652;2022-08-20T05:50:20;5.35;;;3.50;;
69414;SDS011;56608;43.530;-5.652;2022-08-20T05:51:22;4.50;;;3.10;;
69414;SDS011;56608;43.530;-5.652;2022-08-20T05:52:23;6.80;;;3.40;;
69414;SDS011;56608;43.530;-5.652;2022-08-20T05:53:26;5.50;;;3.70;;
69414;SDS011;56608;43.530;-5.652;2022-08-20T05:54:27;6.20;;;3.90;;
69414;SDS011;56608;43.530;-5.652;2022-08-20T05:55:29;5.55;;;3.70;;
69414;SDS011;56608;43.530;-5.652;2022-08-20T05:56:31;9.77;;;4.20;;
69414;SDS011;56608;43.530;-5.652;2022-08-20T05:57:34;6.20;;;3.40;;
69414;SDS011;56608;43.530;-5.652;2022-08-20T05:58:36;4.50;;;3.10;;
69414;SDS011;56608;43.530;-5.652;2022-08-20T06:00:39;5.20;;;3.50;;
69414;SDS011;56608;43.530;-5.652;2022-08-20T06:01:41;4.97;;;3.58;;
69414;SDS011;56608;43.530;-5.652;2022-08-20T06:02:42;4.30;;;3.45;;
69414;SDS011;56608;43.530;-5.652;2022-08-20T06:04:02;5.95;;;3.95;;
69414;SDS011;56608;43.530;-5.652;2022-08-20T06:05:23;5.70;;;3.80;;
69414;SDS011;56608;43.530;-5.652;2022-08-20T06:06:25;5.75;;;3.70;;
69414;SDS011;56608;43.530;-5.652;2022-08-20T06:07:28;6.10;;;3.35;;
69414;SDS011;56608;43.530;-5.652;2022-08-20T06:08:29;6.75;;;3.55;;
69414;SDS011;56608;43.530;-5.652;2022-08-20T06:09:32;5.30;;;3.30;;
69414;SDS011;56608;43.530;-5.652;2022-08-20T06:11:35;6.15;;;3.45;;
69414;SDS011;56608;43.530;-5.652;2022-08-20T06:12:36;7.30;;;3.37;;
69414;SDS011;56608;43.530;-5.652;2022-08-20T06:13:38;6.90;;;3.50;;
69414;SDS011;56608;43.530;-5.652;2022-08-20T06:14:39;4.90;;;3.67;;
69414;SDS011;56608;43.530;-5.652;2022-08-20T06:15:40;7.70;;;4.00;;
69414;SDS011;56608;43.530;-5.652;2022-08-20T06:16:42;5.43;;;3.30;;
69414;SDS011;56608;43.530;-5.652;2022-08-20T06:17:44;7.60;;;3.50;;
69414;SDS011;56608;43.530;-5.652;2022-08-20T06:18:46;5.20;;;3.45;;
69414;SDS011;56608;43.530;-5.652;2022-08-20T06:19:47;5.75;;;3.35;;
69414;SDS011;56608;43.530;-5.652;2022-08-20T06:21:50;5.90;;;3.80;;
69414;SDS011;56608;43.530;-5.652;2022-08-20T06:22:50;4.30;;;3.50;;
69414;SDS011;56608;43.530;-5.652;2022-08-20T06:23:52;9.30;;;3.80;;
69414;SDS011;56608;43.530;-5.652;2022-08-20T06:24:54;5.35;;;3.53;;
69414;SDS011;56608;43.530;-5.652;2022-08-20T06:26:57;5.75;;;3.83;;
69414;SDS011;56608;43.530;-5.652;2022-08-20T06:28:00;6.00;;;3.65;;
69414;SDS011;56608;43.530;-5.652;2022-08-20T06:29:03;8.00;;;4.20;;
69414;SDS011;56608;43.530;-5.652;2022-08-20T06:30:07;6.95;;;3.60;;
69414;SDS011;56608;43.530;-5.652;2022-08-20T06:31:09;5.40;;;4.00;;
69414;SDS011;56608;43.530;-5.652;2022-08-20T06:32:10;5.20;;;3.75;;
69414;SDS011;56608;43.530;-5.652;2022-08-20T06:33:12;6.35;;;3.90;;
69414;SDS011;56608;43.530;-5.652;2022-08-20T06:34:13;5.35;;;3.65;;
69414;SDS011;56608;43.530;-5.652;2022-08-20T06:35:15;6.85;;;4.10;;
69414;SDS011;56608;43.530;-5.652;2022-08-20T06:36:16;5.25;;;3.90;;
69414;SDS011;56608;43.530;-5.652;2022-08-20T06:37:22;7.30;;;4.05;;
69414;SDS011;56608;43.530;-5.652;2022-08-20T06:38:25;6.20;;;3.70;;
69414;SDS011;56608;43.530;-5.652;2022-08-20T06:39:26;8.30;;;3.40;;
69414;SDS011;56608;43.530;-5.652;2022-08-20T06:40:31;4.45;;;3.75;;